createdAt,value
2023-04-18T00:01:19.315Z,4.60
2023-04-18T00:03:47.942Z,4.60
2023-04-18T00:06:16.386Z,4.50
2023-04-18T00:08:44.837Z,4.50
2023-04-18T00:11:13.132Z,4.50
2023-04-18T00:13:43.086Z,4.40
2023-04-18T00:16:13.287Z,4.40
2023-04-18T00:18:41.796Z,4.30
2023-04-18T00:21:10.198Z,4.20
2023-04-18T00:23:38.569Z,4.20
2023-04-18T00:26:07.115Z,4.20
2023-04-18T00:28:35.504Z,4.20
2023-04-18T00:31:05.418Z,4.20
2023-04-18T00:33:35.089Z,4.20
2023-04-18T00:36:03.509Z,4.20
2023-04-18T00:38:31.759Z,4.20
2023-04-18T00:41:00.144Z,4.20
2023-04-18T00:43:28.566Z,4.10
2023-04-18T00:46:01.356Z,4.10
2023-04-18T00:48:31.521Z,4.10
2023-04-18T00:51:00.538Z,4.10
2023-04-18T00:53:29.888Z,4.00
2023-04-18T00:55:58.480Z,4.00
2023-04-18T00:58:27.571Z,3.90
2023-04-18T01:00:55.987Z,3.90
2023-04-18T01:03:25.550Z,3.90
2023-04-18T01:05:57.421Z,3.90
2023-04-18T01:08:27.780Z,3.90
2023-04-18T01:10:59.333Z,3.90
2023-04-18T01:13:27.712Z,3.90
2023-04-18T01:15:57.479Z,3.90
2023-04-18T01:18:26.731Z,3.90
2023-04-18T01:20:57.041Z,3.90
2023-04-18T01:23:25.824Z,3.80
2023-04-18T01:25:55.571Z,3.80
2023-04-18T01:28:27.682Z,3.80
2023-04-18T01:30:57.590Z,3.80
2023-04-18T01:33:25.903Z,3.80
2023-04-18T01:35:54.232Z,3.70
2023-04-18T01:38:22.963Z,3.70
2023-04-18T01:40:52.366Z,3.60
2023-04-18T01:43:21.869Z,3.60
2023-04-18T01:45:50.242Z,3.60
2023-04-18T01:48:18.449Z,3.60
2023-04-18T01:50:46.854Z,3.50
2023-04-18T01:53:15.070Z,3.50
2023-04-18T01:55:45.673Z,3.50
2023-04-18T01:58:15.399Z,3.50
2023-04-18T02:00:45.395Z,3.50
2023-04-18T02:03:13.912Z,3.50
2023-04-18T02:05:42.374Z,3.50
2023-04-18T02:08:11.705Z,3.50
2023-04-18T02:10:40.459Z,3.50
2023-04-18T02:13:08.716Z,3.50
2023-04-18T02:15:37.514Z,3.50
2023-04-18T02:18:09.460Z,3.50
2023-04-18T02:20:38.018Z,3.50
2023-04-18T02:23:06.878Z,3.60
2023-04-18T02:25:35.212Z,3.60
2023-04-18T02:28:03.528Z,3.60
2023-04-18T02:30:32.777Z,3.60
2023-04-18T02:33:03.785Z,3.60
2023-04-18T02:35:33.565Z,3.60
2023-04-18T02:38:01.828Z,3.50
2023-04-18T02:40:30.233Z,3.50
2023-04-18T02:43:02.045Z,3.40
2023-04-18T02:45:30.887Z,3.50
2023-04-18T02:48:02.241Z,3.60
2023-04-18T02:50:30.792Z,3.60
2023-04-18T02:53:01.062Z,3.70
2023-04-18T02:55:40.384Z,3.90
2023-04-18T02:58:09.231Z,4.00
2023-04-18T03:00:58.086Z,4.10
2023-04-18T03:03:46.248Z,4.20
2023-04-18T03:06:26.922Z,4.20
2023-04-18T03:08:57.234Z,4.20
2023-04-18T03:11:26.473Z,4.20
2023-04-18T03:13:56.384Z,4.20
2023-04-18T03:16:27.733Z,4.20
2023-04-18T03:18:56.222Z,4.20
2023-04-18T03:21:24.973Z,4.20
2023-04-18T03:23:53.850Z,4.20
2023-04-18T03:26:25.685Z,4.20
2023-04-18T03:28:55.607Z,4.20
2023-04-18T03:31:23.980Z,4.10
2023-04-18T03:33:52.591Z,4.20
2023-04-18T03:36:25.246Z,4.20
2023-04-18T03:38:56.431Z,4.10
2023-04-18T03:41:28.059Z,4.20
2023-04-18T03:43:58.572Z,4.10
2023-04-18T03:46:27.281Z,4.10
2023-04-18T03:48:57.182Z,4.00
2023-04-18T03:51:26.028Z,4.00
2023-04-18T03:53:54.367Z,4.00
2023-04-18T03:56:24.601Z,3.90
2023-04-18T03:58:58.702Z,3.90
2023-04-18T04:01:27.092Z,3.80
2023-04-18T04:03:55.824Z,3.80
2023-04-18T04:06:25.017Z,3.70
2023-04-18T04:08:53.385Z,3.60
2023-04-18T04:11:25.551Z,3.50
2023-04-18T04:13:54.527Z,3.40
2023-04-18T04:16:30.222Z,3.40
2023-04-18T04:18:58.827Z,3.30
2023-04-18T04:21:33.660Z,3.30
2023-04-18T04:24:03.095Z,3.30
2023-04-18T04:26:36.980Z,3.30
2023-04-18T04:29:11.746Z,3.30
2023-04-18T04:31:42.362Z,3.40
2023-04-18T04:34:10.749Z,3.40
2023-04-18T04:36:41.171Z,3.40
2023-04-18T04:39:11.336Z,3.50
2023-04-18T04:41:53.413Z,3.60
2023-04-18T04:44:26.142Z,3.80
2023-04-18T04:46:56.980Z,3.90
2023-04-18T04:49:31.112Z,4.00
2023-04-18T04:52:01.424Z,4.20
2023-04-18T04:54:30.704Z,4.30
2023-04-18T04:56:59.065Z,4.50
2023-04-18T04:59:27.489Z,4.60
2023-04-18T05:01:57.316Z,4.70
2023-04-18T05:04:26.163Z,4.90
2023-04-18T05:06:54.732Z,5.00
2023-04-18T05:09:23.062Z,5.10
2023-04-18T05:11:51.291Z,5.30
2023-04-18T05:14:20.765Z,5.30
2023-04-18T05:16:49.110Z,5.50
2023-04-18T05:19:18.967Z,5.60
2023-04-18T05:21:47.278Z,5.70
2023-04-18T05:24:15.822Z,5.70
2023-04-18T05:26:44.598Z,5.80
2023-04-18T05:29:12.951Z,5.80
2023-04-18T05:31:41.223Z,5.90
2023-04-18T05:34:09.550Z,6.00
2023-04-18T05:36:39.065Z,6.00
2023-04-18T05:39:08.041Z,6.00
2023-04-18T05:41:36.506Z,6.10
2023-04-18T05:44:05.865Z,6.10
2023-04-18T05:46:34.537Z,6.10
2023-04-18T05:49:03.529Z,6.20
2023-04-18T05:51:31.978Z,6.20
2023-04-18T05:54:01.767Z,6.30
2023-04-18T05:56:30.778Z,6.40
2023-04-18T05:58:59.128Z,6.40
2023-04-18T06:01:27.499Z,6.50
2023-04-18T06:03:56.322Z,6.60
2023-04-18T06:06:24.856Z,6.70
2023-04-18T06:08:53.135Z,6.80
2023-04-18T06:11:22.666Z,6.90
2023-04-18T06:13:51.109Z,7.00
2023-04-18T06:16:19.469Z,7.00
2023-04-18T06:18:47.863Z,7.00
2023-04-18T06:21:16.097Z,7.10
2023-04-18T06:23:44.483Z,7.20
2023-04-18T06:26:12.779Z,7.30
2023-04-18T06:28:42.470Z,7.30
2023-04-18T06:31:10.933Z,7.30
2023-04-18T06:33:39.291Z,7.30
2023-04-18T06:36:08.844Z,7.40
2023-04-18T06:38:37.192Z,7.50
2023-04-18T06:41:05.796Z,7.60
2023-04-18T06:43:35.811Z,7.70
2023-04-18T06:46:06.255Z,7.90
2023-04-18T06:48:34.847Z,7.90
2023-04-18T06:51:03.101Z,7.90
2023-04-18T06:53:31.443Z,8.00
2023-04-18T06:55:59.748Z,8.00
2023-04-18T06:58:28.797Z,8.00
2023-04-18T07:01:05.771Z,8.00
2023-04-18T07:03:35.664Z,8.00
2023-04-18T07:06:04.502Z,8.00
2023-04-18T07:08:34.534Z,8.00
2023-04-18T07:11:02.991Z,8.00
2023-04-18T07:13:31.535Z,8.00
2023-04-18T07:15:59.901Z,8.10
2023-04-18T07:18:37.366Z,8.20
2023-04-18T07:21:08.205Z,8.50
2023-04-18T07:23:36.890Z,8.70
2023-04-18T07:26:05.839Z,8.90
2023-04-18T07:28:34.357Z,9.10
2023-04-18T07:31:03.170Z,9.30
2023-04-18T07:33:33.630Z,9.50
2023-04-18T07:36:02.879Z,9.70
2023-04-18T07:38:34.710Z,9.90
2023-04-18T07:41:03.893Z,10.20
2023-04-18T07:43:32.240Z,10.30
2023-04-18T07:46:00.624Z,10.20
2023-04-18T07:48:29.047Z,10.30
2023-04-18T07:50:57.275Z,10.20
2023-04-18T07:53:25.845Z,10.20
2023-04-18T07:55:56.168Z,10.30
2023-04-18T07:58:24.492Z,10.30
2023-04-18T08:00:52.761Z,10.40
2023-04-18T08:03:21.300Z,10.60
2023-04-18T08:05:50.876Z,10.80
2023-04-18T08:08:19.160Z,11.00
2023-04-18T08:10:47.447Z,11.20
2023-04-18T08:13:17.989Z,11.50
2023-04-18T08:15:47.053Z,11.60
2023-04-18T08:18:15.350Z,11.60
2023-04-18T08:20:43.681Z,11.70
2023-04-18T08:23:13.320Z,11.50
2023-04-18T08:25:41.970Z,11.50
2023-04-18T08:28:11.006Z,11.50
2023-04-18T08:30:42.283Z,11.50
2023-04-18T08:33:10.882Z,11.50
2023-04-18T08:35:39.084Z,11.50
2023-04-18T08:38:07.420Z,11.50
2023-04-18T08:40:35.654Z,11.40
2023-04-18T08:43:07.942Z,11.20
2023-04-18T08:45:36.738Z,11.10
2023-04-18T08:48:07.573Z,11.20
2023-04-18T08:50:36.126Z,11.30
2023-04-18T08:53:04.367Z,11.30
2023-04-18T08:55:33.512Z,11.30
2023-04-18T08:58:02.078Z,11.40
2023-04-18T09:00:30.496Z,11.50
2023-04-18T09:02:59.128Z,11.40
2023-04-18T09:05:29.677Z,11.40
2023-04-18T09:07:57.938Z,11.50
2023-04-18T09:10:28.641Z,11.70
2023-04-18T09:12:57.870Z,12.00
2023-04-18T09:15:29.089Z,12.60
2023-04-18T09:17:59.214Z,13.00
2023-04-18T09:20:34.357Z,13.20
2023-04-18T09:23:04.811Z,13.10
2023-04-18T09:25:41.653Z,12.80
2023-04-18T09:28:24.750Z,12.60
2023-04-18T09:30:56.078Z,12.60
2023-04-18T09:33:29.099Z,12.60
2023-04-18T09:36:17.828Z,12.60
2023-04-18T09:38:46.413Z,12.60
2023-04-18T09:41:19.143Z,12.60
2023-04-18T09:43:49.088Z,12.50
2023-04-18T09:46:17.964Z,12.40
2023-04-18T09:48:46.348Z,12.40
2023-04-18T09:51:17.979Z,12.50
2023-04-18T09:53:47.638Z,12.70
2023-04-18T09:56:21.077Z,13.00
2023-04-18T09:58:56.774Z,13.00
2023-04-18T10:01:28.741Z,13.20
2023-04-18T10:03:58.795Z,13.20
2023-04-18T10:06:30.004Z,13.10
2023-04-18T10:08:58.919Z,13.00
2023-04-18T10:11:27.696Z,12.90
2023-04-18T10:13:59.481Z,12.70
2023-04-18T10:16:29.339Z,12.60
2023-04-18T10:18:58.355Z,12.60
2023-04-18T10:21:29.619Z,12.70
2023-04-18T10:23:57.935Z,12.80
2023-04-18T10:26:50.146Z,13.00
2023-04-18T10:29:18.751Z,13.40
2023-04-18T10:31:48.819Z,13.60
2023-04-18T10:34:19.377Z,13.60
2023-04-18T10:37:07.227Z,13.60
2023-04-18T10:39:49.808Z,13.60
2023-04-18T10:42:18.326Z,13.70
2023-04-18T10:45:16.547Z,13.80
2023-04-18T10:47:44.909Z,13.90
2023-04-18T10:50:13.345Z,14.10
2023-04-18T10:52:43.697Z,14.40
2023-04-18T10:55:17.582Z,14.50
2023-04-18T10:57:47.533Z,14.60
2023-04-18T11:00:18.138Z,14.70
2023-04-18T11:02:51.579Z,14.60
2023-04-18T11:05:22.961Z,14.60
2023-04-18T11:07:53.119Z,14.50
2023-04-18T11:10:22.813Z,14.50
2023-04-18T11:12:52.396Z,14.80
2023-04-18T11:15:22.479Z,15.30
2023-04-18T11:18:01.456Z,15.70
2023-04-18T11:20:30.147Z,16.60
2023-04-18T11:23:01.297Z,16.70
2023-04-18T11:25:31.885Z,16.50
2023-04-18T11:28:01.505Z,16.50
2023-04-18T11:30:36.802Z,16.20
2023-04-18T11:33:07.301Z,15.70
2023-04-18T11:35:38.809Z,15.40
2023-04-18T11:38:10.041Z,15.00
2023-04-18T11:40:38.622Z,14.70
2023-04-18T11:43:08.346Z,14.60
2023-04-18T11:45:36.804Z,14.50
2023-04-18T11:48:06.005Z,14.40
2023-04-18T11:50:37.535Z,14.30
2023-04-18T11:53:05.806Z,14.30
2023-04-18T11:55:35.667Z,14.30
2023-04-18T11:58:04.372Z,14.30
2023-04-18T12:00:34.926Z,14.30
2023-04-18T12:03:05.529Z,14.30
2023-04-18T12:05:35.298Z,14.20
2023-04-18T12:08:08.204Z,14.20
2023-04-18T12:10:37.978Z,14.30
2023-04-18T12:13:09.106Z,14.20
2023-04-18T12:15:40.433Z,14.20
2023-04-18T12:18:09.465Z,14.20
2023-04-18T12:20:39.152Z,14.20
2023-04-18T12:23:08.017Z,14.20
2023-04-18T12:25:38.313Z,14.50
2023-04-18T12:28:16.727Z,14.70
2023-04-18T12:30:44.971Z,14.80
2023-04-18T12:33:13.338Z,14.70
2023-04-18T12:35:42.413Z,14.80
2023-04-18T12:38:10.954Z,14.80
2023-04-18T12:40:41.458Z,14.80
2023-04-18T12:43:11.166Z,14.80
2023-04-18T12:45:39.432Z,14.90
2023-04-18T12:48:08.116Z,14.90
2023-04-18T12:50:36.532Z,15.00
2023-04-18T12:53:05.707Z,15.00
2023-04-18T12:55:34.236Z,14.90
2023-04-18T12:58:05.226Z,14.80
2023-04-18T13:00:33.810Z,14.70
2023-04-18T13:03:02.445Z,14.80
2023-04-18T13:05:33.699Z,14.50
2023-04-18T13:10:34.058Z,14.40
2023-04-18T13:13:03.749Z,14.30
2023-04-18T13:15:32.054Z,14.30
2023-04-18T13:18:04.664Z,14.20
2023-04-18T13:20:33.780Z,14.10
2023-04-18T13:23:03.152Z,14.00
2023-04-18T13:25:31.665Z,13.90
2023-04-18T13:28:00.849Z,13.80
2023-04-18T13:30:31.704Z,13.70
2023-04-18T13:33:00.073Z,13.70
2023-04-18T13:35:28.507Z,13.60
2023-04-18T13:37:56.810Z,13.60
2023-04-18T13:40:25.147Z,13.70
2023-04-18T13:42:53.568Z,13.80
2023-04-18T13:45:21.879Z,13.80
2023-04-18T13:47:51.687Z,13.90
2023-04-18T13:50:20.290Z,14.00
2023-04-18T13:52:49.241Z,14.10
2023-04-18T13:55:18.413Z,14.20
2023-04-18T13:57:46.933Z,14.30
2023-04-18T14:00:16.843Z,14.20
2023-04-18T14:02:45.436Z,14.30
2023-04-18T14:05:15.300Z,14.30
2023-04-18T14:07:43.616Z,14.30
2023-04-18T14:10:12.514Z,14.30
2023-04-18T14:12:40.903Z,14.30
2023-04-18T14:15:10.588Z,14.30
2023-04-18T14:17:38.882Z,14.30
2023-04-18T14:20:08.742Z,14.30
2023-04-18T14:22:38.310Z,14.30
2023-04-18T14:25:08.433Z,14.50
2023-04-18T14:27:37.370Z,15.00
2023-04-18T14:30:08.611Z,15.60
2023-04-18T14:32:37.124Z,16.10
2023-04-18T14:35:07.090Z,16.60
2023-04-18T14:37:35.440Z,17.00
2023-04-18T14:40:08.104Z,17.30
2023-04-18T14:42:36.355Z,17.50
2023-04-18T14:45:05.472Z,17.20
2023-04-18T14:47:34.573Z,16.90
2023-04-18T14:50:02.967Z,16.50
2023-04-18T14:52:31.340Z,16.10
2023-04-18T14:54:59.647Z,15.70
2023-04-18T14:57:29.285Z,15.60
2023-04-18T14:59:57.635Z,15.40
2023-04-18T15:02:26.122Z,15.20
2023-04-18T15:04:54.774Z,14.80
2023-04-18T15:07:25.694Z,14.60
2023-04-18T15:09:54.343Z,14.80
2023-04-18T15:12:22.845Z,15.20
2023-04-18T15:14:53.812Z,15.70
2023-04-18T15:17:22.214Z,16.00
2023-04-18T15:19:50.511Z,16.30
2023-04-18T15:22:18.838Z,16.40
2023-04-18T15:24:48.031Z,16.50
2023-04-18T15:27:16.711Z,16.50
2023-04-18T15:29:44.976Z,16.60
2023-04-18T15:32:14.735Z,16.60
2023-04-18T15:34:43.131Z,16.70
2023-04-18T15:37:11.516Z,16.90
2023-04-18T15:39:39.841Z,16.90
2023-04-18T15:42:08.066Z,16.70
2023-04-18T15:44:36.477Z,16.70
2023-04-18T15:47:04.804Z,16.40
2023-04-18T15:49:34.572Z,16.40
2023-04-18T15:52:06.166Z,16.50
2023-04-18T15:54:34.569Z,16.60
2023-04-18T15:57:03.448Z,16.60
2023-04-18T15:59:31.848Z,16.80
2023-04-18T16:02:00.317Z,16.80
2023-04-18T16:04:29.042Z,16.70
2023-04-18T16:06:58.610Z,16.80
2023-04-18T16:09:27.066Z,16.80
2023-04-18T16:11:56.112Z,16.60
2023-04-18T16:14:24.592Z,16.50
2023-04-18T16:16:53.667Z,16.10
2023-04-18T16:19:22.115Z,15.70
2023-04-18T16:21:51.678Z,15.30
2023-04-18T16:24:21.370Z,15.00
2023-04-18T16:26:49.580Z,14.70
2023-04-18T16:29:17.943Z,14.40
2023-04-18T16:31:46.508Z,14.20
2023-04-18T16:34:15.780Z,14.10
2023-04-18T16:36:44.232Z,14.00
2023-04-18T16:39:12.934Z,13.80
2023-04-18T16:41:42.460Z,13.80
2023-04-18T16:44:10.854Z,13.70
2023-04-18T16:46:39.146Z,13.50
2023-04-18T16:49:07.695Z,13.60
2023-04-18T16:51:37.166Z,13.40
2023-04-18T16:54:06.334Z,13.30
2023-04-18T16:56:35.252Z,13.30
2023-04-18T16:59:05.018Z,13.30
2023-04-18T17:01:33.819Z,13.20
2023-04-18T17:04:02.635Z,13.20
2023-04-18T17:06:31.995Z,13.20
2023-04-18T17:09:00.732Z,13.20
2023-04-18T17:11:30.033Z,13.10
2023-04-18T17:13:58.424Z,13.00
2023-04-18T17:16:28.018Z,12.90
2023-04-18T17:18:56.529Z,12.90
2023-04-18T17:21:24.848Z,12.80
2023-04-18T17:23:53.413Z,12.70
2023-04-18T17:26:22.565Z,12.60
2023-04-18T17:28:51.266Z,12.60
2023-04-18T17:31:19.586Z,12.50
2023-04-18T17:33:50.494Z,12.40
2023-04-18T17:36:18.926Z,12.40
2023-04-18T17:38:48.853Z,12.30
2023-04-18T17:41:18.287Z,12.20
2023-04-18T17:43:47.205Z,12.20
2023-04-18T17:46:15.979Z,12.10
2023-04-18T17:48:44.294Z,12.00
2023-04-18T17:51:16.198Z,12.00
2023-04-18T17:53:44.541Z,11.90
2023-04-18T17:56:12.784Z,11.90
2023-04-18T17:58:41.139Z,11.90
2023-04-18T18:01:15.373Z,11.90
2023-04-18T18:03:44.926Z,11.80
2023-04-18T18:06:15.389Z,11.80
2023-04-18T18:08:44.487Z,11.80
2023-04-18T18:11:12.899Z,11.80
2023-04-18T18:13:41.316Z,11.70
2023-04-18T18:16:09.827Z,11.70
2023-04-18T18:18:38.336Z,11.70
2023-04-18T18:21:06.699Z,11.60
2023-04-18T18:23:36.475Z,11.60
2023-04-18T18:26:06.482Z,11.60
2023-04-18T18:28:35.011Z,11.50
2023-04-18T18:31:03.957Z,11.50
2023-04-18T18:33:32.309Z,11.50
2023-04-18T18:36:01.409Z,11.40
2023-04-18T18:38:29.900Z,11.40
2023-04-18T18:41:03.063Z,11.40
2023-04-18T18:43:32.090Z,11.40
2023-04-18T18:46:00.388Z,11.40
2023-04-18T18:48:29.025Z,11.40
2023-04-18T18:50:58.210Z,11.30
2023-04-18T18:53:26.607Z,11.30
2023-04-18T18:55:55.121Z,11.30
2023-04-18T18:58:24.840Z,11.20
2023-04-18T19:00:53.641Z,11.20
2023-04-18T19:03:22.171Z,11.20
2023-04-18T19:05:50.445Z,11.20
2023-04-18T19:08:18.802Z,11.20
2023-04-18T19:10:47.033Z,11.20
2023-04-18T19:13:15.604Z,11.20
2023-04-18T19:15:45.291Z,11.20
2023-04-18T19:18:13.733Z,11.10
2023-04-18T19:20:42.150Z,11.10
2023-04-18T19:23:10.481Z,11.10
2023-04-18T19:25:38.776Z,11.10
2023-04-18T19:28:07.128Z,11.00
2023-04-18T19:30:35.526Z,11.00
2023-04-18T19:33:05.253Z,11.00
2023-04-18T19:35:34.803Z,11.10
2023-04-18T19:38:04.817Z,11.00
2023-04-18T19:40:33.190Z,11.10
2023-04-18T19:43:01.557Z,11.00
2023-04-18T19:45:31.223Z,11.00
2023-04-18T19:47:59.636Z,11.00
2023-04-18T19:50:29.414Z,11.00
2023-04-18T19:52:57.709Z,11.00
2023-04-18T19:55:26.396Z,11.00
2023-04-18T19:57:56.580Z,11.00
2023-04-18T20:00:24.954Z,10.90
2023-04-18T20:02:53.407Z,10.90
2023-04-18T20:05:22.399Z,10.90
2023-04-18T20:07:52.185Z,10.90
2023-04-18T20:10:22.415Z,10.90
2023-04-18T20:12:50.960Z,10.80
2023-04-18T20:15:19.462Z,10.80
2023-04-18T20:17:47.832Z,10.80
2023-04-18T20:20:16.204Z,10.80
2023-04-18T20:22:46.822Z,10.80
2023-04-18T20:25:16.652Z,10.70
2023-04-18T20:27:44.935Z,10.70
2023-04-18T20:30:13.714Z,10.70
2023-04-18T20:32:42.041Z,10.70
2023-04-18T20:35:10.633Z,10.70
2023-04-18T20:37:38.971Z,10.70
2023-04-18T20:40:10.698Z,10.70
2023-04-18T20:42:40.260Z,10.70
2023-04-18T20:45:10.966Z,10.70
2023-04-18T20:47:41.098Z,10.70
2023-04-18T20:50:10.481Z,10.70
2023-04-18T20:52:38.723Z,10.70
2023-04-18T20:55:07.618Z,10.70
2023-04-18T20:57:36.779Z,10.60
2023-04-18T21:00:08.172Z,10.60
2023-04-18T21:02:37.184Z,10.60
2023-04-18T21:05:06.231Z,10.60
2023-04-18T21:07:35.065Z,10.60
2023-04-18T21:10:03.584Z,10.60
2023-04-18T21:12:32.195Z,10.60
2023-04-18T21:15:00.573Z,10.60
2023-04-18T21:17:30.140Z,10.60
2023-04-18T21:19:58.511Z,10.50
2023-04-18T21:22:26.942Z,10.60
2023-04-18T21:24:55.223Z,10.60
2023-04-18T21:27:23.481Z,10.60
2023-04-18T21:29:51.723Z,10.60
2023-04-18T21:32:21.063Z,10.60
2023-04-18T21:34:50.615Z,10.60
2023-04-18T21:37:18.934Z,10.60
2023-04-18T21:39:47.170Z,10.60
2023-04-18T21:42:15.649Z,10.60
2023-04-18T21:44:43.861Z,10.60
2023-04-18T21:47:12.186Z,10.60
2023-04-18T21:49:55.526Z,10.60
2023-04-18T21:52:25.363Z,10.60
2023-04-18T21:54:53.653Z,10.60
2023-04-18T21:57:22.080Z,10.50
2023-04-18T21:59:50.265Z,10.50
2023-04-18T22:02:18.764Z,10.50
2023-04-18T22:04:47.981Z,10.50
2023-04-18T22:07:17.564Z,10.50
2023-04-18T22:09:47.099Z,10.50
2023-04-18T22:12:15.687Z,10.50
2023-04-18T22:14:48.073Z,10.50
2023-04-18T22:17:16.498Z,10.40
2023-04-18T22:19:44.966Z,10.40
2023-04-18T22:22:13.603Z,10.40
2023-04-18T22:24:41.812Z,10.40
2023-04-18T22:27:11.611Z,10.40
2023-04-18T22:29:39.823Z,10.30
2023-04-18T22:32:08.184Z,10.30
2023-04-18T22:34:36.387Z,10.30
2023-04-18T22:37:04.697Z,10.30
2023-04-18T22:39:33.254Z,10.30
2023-04-18T22:42:02.626Z,10.30
2023-04-18T22:44:32.157Z,10.30
2023-04-18T22:47:00.752Z,10.30
2023-04-18T22:49:29.935Z,10.30
2023-04-18T22:51:58.588Z,10.30
2023-04-18T22:54:26.837Z,10.30
2023-04-18T22:56:55.828Z,10.20
2023-04-18T22:59:23.973Z,10.20
2023-04-18T23:01:53.823Z,10.20
2023-04-18T23:04:22.500Z,10.20
2023-04-18T23:06:51.006Z,10.20
2023-04-18T23:09:19.590Z,10.10
2023-04-18T23:11:47.926Z,10.10
2023-04-18T23:14:16.737Z,10.10
2023-04-18T23:16:45.203Z,10.10
2023-04-18T23:19:14.702Z,10.00
2023-04-18T23:21:43.198Z,10.00
2023-04-18T23:24:12.182Z,10.10
2023-04-18T23:26:40.693Z,10.00
2023-04-18T23:29:08.921Z,10.00
2023-04-18T23:31:37.367Z,10.00
2023-04-18T23:34:05.735Z,10.00
2023-04-18T23:36:35.900Z,10.00
2023-04-18T23:39:05.429Z,10.00
2023-04-18T23:41:33.979Z,10.00
2023-04-18T23:44:02.435Z,10.00
2023-04-18T23:46:31.036Z,10.00
2023-04-18T23:48:59.696Z,9.90
2023-04-18T23:51:28.023Z,10.00
2023-04-18T23:53:57.781Z,10.00
2023-04-18T23:56:26.312Z,9.90
2023-04-18T23:58:54.949Z,9.90
